createdAt,value
2022-10-23T00:01:47.640Z,14.56
2022-10-23T00:04:19.780Z,14.62
2022-10-23T00:06:50.083Z,14.56
2022-10-23T00:09:20.540Z,14.51
2022-10-23T00:11:50.412Z,14.63
2022-10-23T00:14:21.139Z,14.61
2022-10-23T00:16:50.716Z,14.63
2022-10-23T00:19:19.747Z,14.63
2022-10-23T00:21:48.511Z,14.56
2022-10-23T00:24:17.110Z,14.65
2022-10-23T00:26:45.816Z,14.67
2022-10-23T00:29:14.396Z,14.68
2022-10-23T00:31:43.608Z,14.63
2022-10-23T00:34:12.954Z,14.58
2022-10-23T00:36:41.542Z,14.60
2022-10-23T00:39:10.300Z,14.46
2022-10-23T00:41:38.927Z,14.37
2022-10-23T00:44:10.457Z,14.44
2022-10-23T00:46:39.984Z,14.55
2022-10-23T00:49:10.372Z,14.54
2022-10-23T00:51:43.179Z,14.42
2022-10-23T00:54:29.182Z,14.44
2022-10-23T00:57:00.440Z,14.44
2022-10-23T00:59:29.314Z,14.48
2022-10-23T01:01:59.138Z,14.50
2022-10-23T01:04:29.413Z,14.50
2022-10-23T01:07:04.807Z,14.55
2022-10-23T01:09:37.939Z,14.46
2022-10-23T01:12:15.408Z,14.57
2022-10-23T01:14:56.105Z,14.68
2022-10-23T01:17:30.863Z,14.75
2022-10-23T01:20:14.433Z,14.89
2022-10-23T01:23:04.902Z,15.01
2022-10-23T01:25:56.029Z,14.80
2022-10-23T01:28:31.239Z,14.76
2022-10-23T01:31:04.930Z,14.77
2022-10-23T01:33:38.099Z,14.79
2022-10-23T01:36:11.698Z,14.79
2022-10-23T01:38:45.291Z,14.66
2022-10-23T01:41:20.185Z,14.75
2022-10-23T01:43:56.498Z,14.77
2022-10-23T01:46:28.069Z,14.72
2022-10-23T01:48:58.884Z,14.59
2022-10-23T01:51:29.562Z,14.59
2022-10-23T01:54:00.922Z,14.64
2022-10-23T01:56:35.239Z,14.54
2022-10-23T01:59:10.624Z,14.42
2022-10-23T02:01:42.770Z,14.35
2022-10-23T02:04:16.673Z,14.34
2022-10-23T02:06:45.530Z,14.34
2022-10-23T02:09:14.217Z,14.30
2022-10-23T02:11:51.134Z,14.29
2022-10-23T02:14:26.010Z,14.20
2022-10-23T02:16:59.644Z,14.25
2022-10-23T02:19:33.152Z,14.22
2022-10-23T02:22:08.258Z,14.30
2022-10-23T02:24:42.816Z,14.25
2022-10-23T02:27:15.504Z,14.30
2022-10-23T02:29:48.370Z,14.42
2022-10-23T02:32:20.512Z,14.57
2022-10-23T02:34:49.432Z,14.57
2022-10-23T02:37:18.186Z,14.44
2022-10-23T02:39:47.830Z,14.37
2022-10-23T02:42:23.876Z,14.38
2022-10-23T02:45:02.514Z,14.47
2022-10-23T02:47:47.475Z,14.41
2022-10-23T02:50:22.206Z,14.36
2022-10-23T02:52:58.733Z,14.46
2022-10-23T02:55:38.691Z,14.40
2022-10-23T02:58:16.381Z,14.50
2022-10-23T03:00:50.867Z,14.45
2022-10-23T03:03:26.759Z,14.39
2022-10-23T03:05:55.631Z,14.30
2022-10-23T03:08:25.126Z,14.33
2022-10-23T03:10:53.950Z,14.33
2022-10-23T03:13:23.180Z,14.24
2022-10-23T03:15:51.778Z,14.27
2022-10-23T03:18:20.340Z,14.24
2022-10-23T03:20:48.989Z,14.21
2022-10-23T03:23:17.619Z,14.13
2022-10-23T03:25:46.272Z,14.19
2022-10-23T03:28:18.933Z,14.22
2022-10-23T03:30:50.929Z,14.02
2022-10-23T03:33:19.606Z,14.01
2022-10-23T03:35:49.566Z,14.03
2022-10-23T03:38:18.245Z,14.09
2022-10-23T03:40:46.787Z,14.01
2022-10-23T03:43:15.576Z,14.03
2022-10-23T03:45:44.176Z,14.08
2022-10-23T03:48:12.961Z,14.24
2022-10-23T03:50:41.642Z,14.35
2022-10-23T03:53:10.196Z,14.36
2022-10-23T03:55:38.759Z,14.36
2022-10-23T03:58:07.409Z,14.35
2022-10-23T04:00:36.061Z,14.43
2022-10-23T04:03:04.987Z,14.43
2022-10-23T04:05:33.528Z,14.34
2022-10-23T04:08:02.172Z,14.21
2022-10-23T04:10:30.816Z,14.22
2022-10-23T04:12:59.583Z,14.14
2022-10-23T04:15:28.505Z,14.15
2022-10-23T04:17:57.094Z,14.13
2022-10-23T04:20:25.784Z,14.18
2022-10-23T04:22:54.524Z,14.16
2022-10-23T04:25:23.100Z,14.25
2022-10-23T04:27:51.625Z,14.30
2022-10-23T04:30:20.658Z,14.33
2022-10-23T04:32:52.281Z,14.39
2022-10-23T04:35:20.886Z,14.53
2022-10-23T04:37:49.520Z,14.49
2022-10-23T04:40:18.541Z,14.47
2022-10-23T04:42:47.213Z,14.57
2022-10-23T04:45:16.248Z,14.58
2022-10-23T04:47:44.983Z,14.40
2022-10-23T04:50:13.704Z,14.33
2022-10-23T04:52:42.790Z,14.31
2022-10-23T04:55:11.994Z,14.40
2022-10-23T04:57:40.682Z,14.34
2022-10-23T05:00:13.337Z,14.38
2022-10-23T05:02:42.588Z,14.49
2022-10-23T05:05:11.908Z,14.47
2022-10-23T05:07:40.662Z,14.41
2022-10-23T05:10:10.585Z,14.34
2022-10-23T05:12:39.163Z,14.25
2022-10-23T05:15:09.701Z,14.25
2022-10-23T05:17:41.907Z,14.30
2022-10-23T05:20:16.127Z,14.37
2022-10-23T05:22:46.445Z,14.38
2022-10-23T05:25:15.254Z,14.31
2022-10-23T05:27:44.288Z,14.18
2022-10-23T05:30:14.738Z,14.22
2022-10-23T05:32:44.045Z,14.14
2022-10-23T05:35:19.570Z,14.23
2022-10-23T05:37:50.628Z,14.36
2022-10-23T05:40:19.932Z,14.40
2022-10-23T05:42:48.856Z,14.53
2022-10-23T05:45:18.549Z,14.62
2022-10-23T05:47:48.697Z,14.55
2022-10-23T05:50:17.940Z,14.37
2022-10-23T05:52:48.768Z,14.38
2022-10-23T05:55:17.814Z,14.40
2022-10-23T05:57:46.614Z,14.37
2022-10-23T06:00:15.938Z,14.40
2022-10-23T06:02:44.662Z,14.44
2022-10-23T06:05:13.549Z,14.47
2022-10-23T06:07:42.403Z,14.38
2022-10-23T06:10:12.041Z,14.49
2022-10-23T06:12:40.778Z,14.30
2022-10-23T06:15:11.367Z,14.32
2022-10-23T06:17:40.291Z,14.27
2022-10-23T06:20:11.029Z,14.37
2022-10-23T06:22:40.116Z,14.49
2022-10-23T06:25:10.493Z,14.32
2022-10-23T06:27:39.102Z,14.31
2022-10-23T06:30:11.682Z,14.38
2022-10-23T06:32:40.816Z,14.37
2022-10-23T06:35:11.236Z,14.36
2022-10-23T06:37:39.779Z,14.39
2022-10-23T06:40:10.479Z,14.49
2022-10-23T06:42:39.152Z,14.57
2022-10-23T06:45:09.449Z,14.54
2022-10-23T06:47:38.329Z,14.56
2022-10-23T06:50:11.714Z,14.51
2022-10-23T06:52:46.910Z,14.43
2022-10-23T06:55:16.884Z,14.54
2022-10-23T06:57:46.051Z,14.70
2022-10-23T07:00:16.425Z,14.73
2022-10-23T07:02:45.718Z,14.66
2022-10-23T07:05:14.536Z,14.67
2022-10-23T07:07:43.229Z,14.68
2022-10-23T07:12:47.332Z,14.66
2022-10-23T07:15:17.556Z,14.91
2022-10-23T07:17:46.387Z,14.95
2022-10-23T07:20:15.258Z,14.81
2022-10-23T07:22:44.113Z,14.84
2022-10-23T07:25:13.038Z,14.88
2022-10-23T07:27:42.351Z,15.00
2022-10-23T07:30:14.006Z,15.05
2022-10-23T07:32:44.403Z,15.16
2022-10-23T07:37:48.889Z,15.52
2022-10-23T07:40:18.745Z,15.84
2022-10-23T07:42:47.501Z,15.93
2022-10-23T07:45:16.476Z,16.00
2022-10-23T07:47:50.249Z,16.06
2022-10-23T07:50:19.282Z,16.09
2022-10-23T07:52:48.162Z,16.13
2022-10-23T07:55:17.211Z,16.03
2022-10-23T07:57:45.870Z,16.02
2022-10-23T08:00:15.914Z,16.06
2022-10-23T08:02:45.820Z,16.09
2022-10-23T08:05:14.801Z,16.19
2022-10-23T08:07:43.399Z,16.20
2022-10-23T08:10:13.202Z,16.21
2022-10-23T08:12:42.051Z,16.25
2022-10-23T08:15:11.558Z,16.23
2022-10-23T08:17:40.952Z,16.22
2022-10-23T08:20:13.136Z,16.18
2022-10-23T08:22:42.123Z,16.14
2022-10-23T08:25:11.545Z,16.21
2022-10-23T08:27:41.143Z,16.30
2022-10-23T08:30:12.076Z,16.27
2022-10-23T08:32:40.755Z,16.24
2022-10-23T08:35:10.857Z,16.31
2022-10-23T08:37:39.580Z,16.21
2022-10-23T08:40:16.218Z,16.15
2022-10-23T08:42:48.612Z,16.19
2022-10-23T08:45:29.927Z,16.08
2022-10-23T08:48:04.434Z,16.08
2022-10-23T08:50:40.339Z,16.14
2022-10-23T08:53:16.782Z,16.26
2022-10-23T08:55:58.039Z,16.24
2022-10-23T08:58:34.362Z,16.16
2022-10-23T09:01:18.199Z,16.18
2022-10-23T09:03:46.941Z,16.15
2022-10-23T09:06:25.568Z,16.31
2022-10-23T09:09:03.166Z,16.29
2022-10-23T09:11:43.720Z,16.27
2022-10-23T09:14:32.446Z,16.36
2022-10-23T09:19:51.596Z,16.19
2022-10-23T09:22:20.521Z,16.31
2022-10-23T09:24:53.723Z,16.36
2022-10-23T09:27:23.360Z,16.40
2022-10-23T09:29:56.112Z,16.34
2022-10-23T09:32:35.381Z,16.30
2022-10-23T09:35:05.276Z,16.27
2022-10-23T09:37:37.041Z,16.32
2022-10-23T09:40:19.635Z,16.42
2022-10-23T09:42:59.405Z,16.57
2022-10-23T09:45:31.393Z,16.53
2022-10-23T09:48:17.567Z,16.42
2022-10-23T09:50:54.740Z,16.44
2022-10-23T09:53:35.332Z,16.57
2022-10-23T09:56:11.467Z,16.67
2022-10-23T09:58:54.552Z,16.70
2022-10-23T10:01:28.091Z,16.63
2022-10-23T10:03:57.783Z,16.77
2022-10-23T10:06:29.355Z,16.82
2022-10-23T10:09:00.087Z,16.58
2022-10-23T10:11:35.385Z,16.46
2022-10-23T10:14:36.193Z,16.47
2022-10-23T10:17:12.635Z,16.65
2022-10-23T10:19:57.348Z,16.67
2022-10-23T10:22:35.796Z,16.77
2022-10-23T10:25:13.399Z,16.77
2022-10-23T10:27:52.105Z,16.69
2022-10-23T10:30:23.571Z,16.60
2022-10-23T10:32:58.260Z,16.65
2022-10-23T10:35:42.647Z,16.64
2022-10-23T10:38:28.811Z,16.78
2022-10-23T10:41:30.383Z,16.75
2022-10-23T10:44:21.575Z,16.80
2022-10-23T10:46:57.168Z,16.88
2022-10-23T10:49:33.084Z,16.88
2022-10-23T10:52:11.379Z,16.86
2022-10-23T10:54:54.992Z,16.90
2022-10-23T10:57:34.018Z,16.90
2022-10-23T11:00:06.411Z,16.90
2022-10-23T11:02:41.318Z,16.85
2022-10-23T11:05:25.193Z,16.94
2022-10-23T11:08:02.610Z,17.08
2022-10-23T11:10:33.504Z,17.09
2022-10-23T11:13:02.790Z,17.13
2022-10-23T11:15:41.019Z,17.13
2022-10-23T11:18:17.301Z,17.14
2022-10-23T11:21:08.053Z,17.11
2022-10-23T11:24:19.882Z,17.17
2022-10-23T11:27:05.663Z,17.36
2022-10-23T11:30:02.438Z,17.52
2022-10-23T11:32:57.509Z,17.64
2022-10-23T11:35:44.080Z,17.57
2022-10-23T11:38:18.895Z,17.72
2022-10-23T11:43:33.753Z,17.92
2022-10-23T11:46:14.785Z,17.96
2022-10-23T11:48:44.357Z,17.85
2022-10-23T11:51:31.387Z,17.89
2022-10-23T11:54:24.143Z,17.86
2022-10-23T11:57:03.182Z,17.82
2022-10-23T11:59:34.390Z,17.77
2022-10-23T12:02:21.249Z,17.72
2022-10-23T12:04:52.764Z,17.76
2022-10-23T12:07:26.456Z,17.73
2022-10-23T12:09:58.031Z,17.76
2022-10-23T12:12:33.701Z,17.76
2022-10-23T12:15:22.104Z,17.67
2022-10-23T12:17:53.619Z,17.59
2022-10-23T12:20:30.971Z,17.42
2022-10-23T12:23:16.541Z,17.44
2022-10-23T12:26:01.165Z,17.49
2022-10-23T12:28:38.414Z,17.44
2022-10-23T12:31:29.220Z,17.37
2022-10-23T12:34:08.110Z,17.30
2022-10-23T12:36:47.883Z,17.46
2022-10-23T12:39:30.481Z,17.51
2022-10-23T12:42:03.617Z,17.39
2022-10-23T12:44:33.077Z,17.26
2022-10-23T12:47:04.204Z,17.25
2022-10-23T12:49:35.208Z,17.23
2022-10-23T12:52:06.377Z,17.20
2022-10-23T12:54:40.173Z,17.26
2022-10-23T12:57:20.832Z,17.23
2022-10-23T12:59:51.840Z,17.32
2022-10-23T13:02:32.710Z,17.47
2022-10-23T13:05:05.688Z,17.58
2022-10-23T13:07:38.013Z,17.49
2022-10-23T13:10:11.770Z,17.39
2022-10-23T13:15:21.408Z,17.24
2022-10-23T13:18:03.390Z,17.30
2022-10-23T13:20:34.854Z,17.36
2022-10-23T13:23:12.622Z,17.31
2022-10-23T13:25:41.535Z,17.31
2022-10-23T13:28:26.110Z,17.36
2022-10-23T13:31:04.888Z,17.41
2022-10-23T13:33:37.243Z,17.53
2022-10-23T13:36:21.304Z,17.41
2022-10-23T13:39:02.396Z,17.23
2022-10-23T13:41:36.092Z,17.27
2022-10-23T13:44:05.109Z,17.33
2022-10-23T13:46:34.047Z,17.40
2022-10-23T13:49:03.367Z,17.37
2022-10-23T13:51:40.191Z,17.40
2022-10-23T13:54:15.488Z,17.46
2022-10-23T13:56:45.663Z,17.44
2022-10-23T13:59:14.766Z,17.47
2022-10-23T14:01:45.064Z,17.56
2022-10-23T14:04:15.082Z,17.74
2022-10-23T14:06:44.470Z,17.69
2022-10-23T14:09:15.334Z,17.67
2022-10-23T14:11:45.752Z,17.52
2022-10-23T14:14:14.641Z,17.51
2022-10-23T14:16:43.460Z,17.59
2022-10-23T14:19:13.108Z,17.49
2022-10-23T14:21:42.184Z,17.36
2022-10-23T14:24:11.217Z,17.28
2022-10-23T14:26:40.516Z,17.23
2022-10-23T14:29:11.463Z,17.22
2022-10-23T14:31:46.955Z,17.32
2022-10-23T14:34:15.694Z,17.28
2022-10-23T14:36:50.324Z,17.29
2022-10-23T14:39:27.724Z,17.37
2022-10-23T14:41:57.152Z,17.27
2022-10-23T14:44:26.734Z,17.24
2022-10-23T14:46:55.775Z,17.17
2022-10-23T14:49:25.469Z,17.19
2022-10-23T14:51:54.537Z,17.39
2022-10-23T14:54:23.695Z,17.32
2022-10-23T14:56:53.576Z,17.32
2022-10-23T14:59:24.851Z,17.35
2022-10-23T15:04:27.930Z,17.28
2022-10-23T15:06:59.211Z,17.11
2022-10-23T15:09:28.270Z,17.04
2022-10-23T15:11:57.567Z,17.07
2022-10-23T15:14:26.810Z,16.99
2022-10-23T15:16:56.536Z,16.95
2022-10-23T15:19:26.088Z,16.92
2022-10-23T15:21:56.006Z,16.74
2022-10-23T15:24:26.258Z,16.62
2022-10-23T15:26:54.900Z,16.51
2022-10-23T15:29:24.059Z,16.56
2022-10-23T15:31:58.525Z,16.72
2022-10-23T15:34:32.945Z,16.78
2022-10-23T15:37:07.888Z,16.75
2022-10-23T15:39:38.050Z,16.79
2022-10-23T15:42:10.929Z,16.67
2022-10-23T15:44:42.710Z,16.69
2022-10-23T15:47:24.560Z,16.75
2022-10-23T15:49:57.141Z,16.79
2022-10-23T15:52:38.613Z,16.78
2022-10-23T15:55:11.794Z,16.65
2022-10-23T15:57:41.262Z,16.49
2022-10-23T16:00:15.870Z,16.29
2022-10-23T16:02:47.745Z,16.21
2022-10-23T16:05:31.356Z,16.23
2022-10-23T16:08:08.865Z,16.16
2022-10-23T16:10:42.151Z,16.17
2022-10-23T16:13:11.619Z,16.12
2022-10-23T16:15:41.199Z,16.03
2022-10-23T16:18:10.740Z,16.07
2022-10-23T16:20:42.581Z,16.00
2022-10-23T16:23:12.966Z,15.94
2022-10-23T16:25:51.506Z,15.99
2022-10-23T16:28:20.616Z,16.05
2022-10-23T16:30:50.095Z,16.15
2022-10-23T16:33:18.931Z,16.16
2022-10-23T16:35:48.070Z,15.99
2022-10-23T16:38:17.333Z,15.81
2022-10-23T16:40:53.331Z,15.72
2022-10-23T16:43:22.340Z,15.62
2022-10-23T16:46:02.212Z,15.68
2022-10-23T16:48:32.027Z,15.61
2022-10-23T16:51:04.888Z,15.56
2022-10-23T16:53:34.005Z,15.52
2022-10-23T16:56:05.627Z,15.60
2022-10-23T16:58:35.141Z,15.66
2022-10-23T17:01:06.271Z,15.56
2022-10-23T17:03:38.062Z,15.41
2022-10-23T17:06:11.701Z,15.42
2022-10-23T17:08:41.634Z,15.38
2022-10-23T17:11:12.298Z,15.34
2022-10-23T17:13:43.368Z,15.33
2022-10-23T17:16:16.711Z,15.30
2022-10-23T17:18:47.325Z,15.25
2022-10-23T17:21:18.982Z,15.06
2022-10-23T17:23:48.381Z,14.97
2022-10-23T17:26:20.186Z,14.91
2022-10-23T17:28:49.590Z,15.06
2022-10-23T17:31:23.757Z,15.10
2022-10-23T17:33:58.185Z,15.08
2022-10-23T17:36:28.465Z,15.02
2022-10-23T17:38:58.530Z,15.06
2022-10-23T17:41:27.833Z,15.12
2022-10-23T17:43:59.865Z,15.10
2022-10-23T17:46:29.854Z,14.94
2022-10-23T17:51:36.243Z,14.91
2022-10-23T17:54:07.524Z,14.80
2022-10-23T17:56:38.434Z,14.68
2022-10-23T17:59:10.347Z,14.63
2022-10-23T18:01:40.157Z,14.68
2022-10-23T18:04:10.068Z,14.56
2022-10-23T18:06:44.176Z,14.33
2022-10-23T18:09:14.000Z,14.24
2022-10-23T18:11:48.684Z,14.25
2022-10-23T18:14:21.207Z,14.33
2022-10-23T18:16:51.090Z,14.29
2022-10-23T18:19:20.959Z,14.30
2022-10-23T18:21:56.409Z,14.29
2022-10-23T18:24:27.192Z,14.33
2022-10-23T18:26:57.004Z,14.19
2022-10-23T18:29:26.320Z,14.07
2022-10-23T18:31:56.285Z,14.10
2022-10-23T18:34:26.413Z,14.06
2022-10-23T18:36:56.772Z,13.95
2022-10-23T18:39:27.909Z,13.91
2022-10-23T18:41:58.276Z,14.03
2022-10-23T18:44:29.908Z,14.11
2022-10-23T18:47:04.273Z,14.18
2022-10-23T18:49:32.754Z,14.13
2022-10-23T18:52:03.086Z,14.11
2022-10-23T18:54:32.640Z,14.08
2022-10-23T18:57:03.501Z,13.92
2022-10-23T18:59:36.033Z,13.81
2022-10-23T19:02:06.420Z,13.92
2022-10-23T19:04:36.571Z,13.89
2022-10-23T19:07:06.071Z,13.78
2022-10-23T19:09:37.849Z,13.78
2022-10-23T19:12:07.817Z,13.82
2022-10-23T19:14:37.349Z,13.71
2022-10-23T19:17:09.645Z,13.71
2022-10-23T19:19:44.757Z,13.66
2022-10-23T19:22:17.472Z,13.70
2022-10-23T19:24:50.052Z,13.62
2022-10-23T19:27:20.174Z,13.55
2022-10-23T19:29:51.892Z,13.63
2022-10-23T19:32:26.327Z,13.68
2022-10-23T19:34:55.909Z,13.57
2022-10-23T19:37:26.741Z,13.51
2022-10-23T19:39:56.112Z,13.54
2022-10-23T19:42:25.523Z,13.60
2022-10-23T19:44:55.786Z,13.54
2022-10-23T19:47:25.666Z,13.48
2022-10-23T19:49:55.391Z,13.47
2022-10-23T19:52:26.974Z,13.39
2022-10-23T19:54:57.942Z,13.35
2022-10-23T19:57:27.546Z,13.23
2022-10-23T19:59:57.077Z,13.14
2022-10-23T20:02:26.709Z,13.07
2022-10-23T20:04:56.717Z,13.05
2022-10-23T20:07:27.685Z,13.02
2022-10-23T20:09:56.467Z,12.94
2022-10-23T20:12:25.954Z,12.75
2022-10-23T20:14:55.412Z,12.75
2022-10-23T20:17:24.231Z,12.73
2022-10-23T20:19:54.389Z,12.66
2022-10-23T20:22:24.392Z,12.61
2022-10-23T20:24:54.898Z,12.57
2022-10-23T20:27:25.161Z,12.56
2022-10-23T20:29:54.259Z,12.63
2022-10-23T20:32:23.359Z,12.73
2022-10-23T20:34:52.621Z,12.73
2022-10-23T20:37:22.219Z,12.57
2022-10-23T20:39:52.349Z,12.63
2022-10-23T20:42:27.984Z,12.70
2022-10-23T20:44:57.383Z,12.77
2022-10-23T20:47:26.456Z,12.70
2022-10-23T20:49:56.515Z,12.54
2022-10-23T20:52:27.692Z,12.49
2022-10-23T20:54:56.921Z,12.33
2022-10-23T20:57:26.711Z,12.24
2022-10-23T20:59:56.491Z,12.34
2022-10-23T21:02:26.611Z,12.29
2022-10-23T21:04:55.560Z,12.40
2022-10-23T21:07:24.369Z,12.28
2022-10-23T21:09:53.128Z,12.31
2022-10-23T21:12:21.854Z,12.31
2022-10-23T21:14:50.520Z,12.22
2022-10-23T21:17:19.460Z,12.28
2022-10-23T21:19:49.179Z,12.49
2022-10-23T21:22:18.441Z,12.46
2022-10-23T21:24:47.768Z,12.50
2022-10-23T21:27:17.051Z,12.63
2022-10-23T21:29:45.731Z,12.60
2022-10-23T21:32:14.615Z,12.53
2022-10-23T21:34:43.608Z,12.50
2022-10-23T21:37:14.267Z,12.37
2022-10-23T21:39:44.975Z,12.29
2022-10-23T21:42:14.932Z,12.33
2022-10-23T21:44:43.975Z,12.31
2022-10-23T21:47:13.442Z,12.40
2022-10-23T21:49:42.168Z,12.34
2022-10-23T21:52:11.748Z,12.32
2022-10-23T21:54:41.126Z,12.34
2022-10-23T21:57:14.713Z,12.34
2022-10-23T21:59:43.570Z,12.32
2022-10-23T22:02:12.458Z,12.30
2022-10-23T22:04:41.308Z,12.28
2022-10-23T22:07:14.437Z,12.26
2022-10-23T22:09:43.839Z,12.20
2022-10-23T22:12:13.079Z,12.22
2022-10-23T22:14:42.114Z,12.25
2022-10-23T22:17:10.768Z,12.22
2022-10-23T22:19:39.625Z,12.20
2022-10-23T22:22:08.399Z,12.16
2022-10-23T22:24:37.793Z,12.11
2022-10-23T22:27:06.851Z,12.22
2022-10-23T22:29:35.656Z,12.14
2022-10-23T22:32:04.566Z,12.09
2022-10-23T22:34:51.861Z,12.19
2022-10-23T22:37:21.731Z,12.17
2022-10-23T22:39:52.829Z,12.28
2022-10-23T22:42:21.547Z,12.25
2022-10-23T22:44:50.262Z,12.25
2022-10-23T22:47:18.997Z,12.33
2022-10-23T22:50:23.464Z,12.31
2022-10-23T22:52:52.392Z,12.30
2022-10-23T22:55:21.142Z,12.25
2022-10-23T22:57:49.814Z,12.15
2022-10-23T23:00:19.650Z,12.01
2022-10-23T23:02:48.558Z,11.99
2022-10-23T23:05:17.487Z,12.00
2022-10-23T23:07:46.403Z,11.98
2022-10-23T23:10:15.577Z,11.97
2022-10-23T23:12:44.296Z,11.94
2022-10-23T23:15:13.530Z,12.02
2022-10-23T23:17:42.326Z,12.08
2022-10-23T23:20:11.661Z,12.15
2022-10-23T23:22:40.401Z,12.22
2022-10-23T23:25:11.245Z,12.16
2022-10-23T23:27:40.382Z,12.23
2022-10-23T23:30:11.342Z,12.16
2022-10-23T23:32:40.029Z,12.17
2022-10-23T23:35:10.103Z,12.24
2022-10-23T23:37:38.755Z,12.37
2022-10-23T23:40:09.924Z,12.34
2022-10-23T23:42:38.579Z,12.29
2022-10-23T23:45:14.763Z,12.23
2022-10-23T23:47:43.932Z,12.18
2022-10-23T23:50:13.379Z,12.15
2022-10-23T23:52:42.082Z,12.11
2022-10-23T23:55:11.340Z,12.10
2022-10-23T23:57:40.331Z,12.09
